createdAt,value
2023-01-26T00:00:15.518Z,0.00
2023-01-26T00:01:15.477Z,0.00
2023-01-26T00:02:15.477Z,0.00
2023-01-26T00:03:15.462Z,0.00
2023-01-26T00:04:15.543Z,0.00
2023-01-26T00:05:15.461Z,0.00
2023-01-26T00:06:15.461Z,0.00
2023-01-26T00:07:15.468Z,0.00
2023-01-26T00:08:15.437Z,0.00
2023-01-26T00:09:15.488Z,0.00
2023-01-26T00:10:15.391Z,0.00
2023-01-26T00:11:15.368Z,0.00
2023-01-26T00:12:15.397Z,0.00
2023-01-26T00:13:15.334Z,0.00
2023-01-26T00:14:15.331Z,0.00
2023-01-26T00:15:15.342Z,0.00
2023-01-26T00:16:15.354Z,0.00
2023-01-26T00:17:15.290Z,0.00
2023-01-26T00:18:15.301Z,0.00
2023-01-26T00:19:15.273Z,0.00
2023-01-26T00:20:15.285Z,0.00
2023-01-26T00:21:15.263Z,0.00
2023-01-26T00:22:15.280Z,0.00
2023-01-26T00:23:15.219Z,0.00
2023-01-26T00:24:15.322Z,0.00
2023-01-26T00:25:15.192Z,0.00
2023-01-26T00:26:15.215Z,0.00
2023-01-26T00:27:15.197Z,0.00
2023-01-26T00:28:21.708Z,0.00
2023-01-26T00:29:15.182Z,0.00
2023-01-26T00:30:15.160Z,0.00
2023-01-26T00:31:15.195Z,0.00
2023-01-26T00:32:15.136Z,0.00
2023-01-26T00:33:15.140Z,0.00
2023-01-26T00:34:15.151Z,0.00
2023-01-26T00:35:15.118Z,0.00
2023-01-26T00:36:15.132Z,0.00
2023-01-26T00:37:15.100Z,0.00
2023-01-26T00:38:15.050Z,0.00
2023-01-26T00:39:15.043Z,0.00
2023-01-26T00:40:15.112Z,0.00
2023-01-26T00:41:15.032Z,0.00
2023-01-26T00:42:15.030Z,0.00
2023-01-26T00:43:15.017Z,0.00
2023-01-26T00:44:15.019Z,0.00
2023-01-26T00:45:14.976Z,0.00
2023-01-26T00:46:15.043Z,0.00
2023-01-26T00:47:14.968Z,0.00
2023-01-26T00:48:14.996Z,0.00
2023-01-26T00:49:14.942Z,0.00
2023-01-26T00:50:14.908Z,0.00
2023-01-26T00:51:14.918Z,0.00
2023-01-26T00:52:15.771Z,0.00
2023-01-26T00:53:14.866Z,0.00
2023-01-26T00:54:14.870Z,0.00
2023-01-26T00:55:14.863Z,0.00
2023-01-26T00:56:14.861Z,0.00
2023-01-26T00:57:14.816Z,0.00
2023-01-26T00:58:14.852Z,0.00
2023-01-26T00:59:14.801Z,0.00
2023-01-26T01:00:14.781Z,0.00
2023-01-26T01:01:14.931Z,0.00
2023-01-26T01:02:14.794Z,0.00
2023-01-26T01:03:14.778Z,0.00
2023-01-26T01:04:14.739Z,0.00
2023-01-26T01:05:14.756Z,0.00
2023-01-26T01:06:15.667Z,0.00
2023-01-26T01:07:14.737Z,0.00
2023-01-26T01:08:14.688Z,0.00
2023-01-26T01:09:14.682Z,0.00
2023-01-26T01:10:14.690Z,0.00
2023-01-26T01:11:14.734Z,0.00
2023-01-26T01:12:14.648Z,0.00
2023-01-26T01:13:14.655Z,0.00
2023-01-26T01:14:14.635Z,0.00
2023-01-26T01:15:14.614Z,0.00
2023-01-26T01:16:14.637Z,0.00
2023-01-26T01:17:14.612Z,0.00
2023-01-26T01:18:14.577Z,0.00
2023-01-26T01:19:14.563Z,0.00
2023-01-26T01:20:14.543Z,0.00
2023-01-26T01:21:14.567Z,0.00
2023-01-26T01:22:14.548Z,0.00
2023-01-26T01:23:14.516Z,0.00
2023-01-26T01:24:14.619Z,0.00
2023-01-26T01:25:14.505Z,0.00
2023-01-26T01:26:14.502Z,0.00
2023-01-26T01:27:14.511Z,0.00
2023-01-26T01:28:21.819Z,0.00
2023-01-26T01:29:14.448Z,0.00
2023-01-26T01:30:14.742Z,0.00
2023-01-26T01:31:14.574Z,0.00
2023-01-26T01:32:14.436Z,0.00
2023-01-26T01:33:14.420Z,0.00
2023-01-26T01:34:14.379Z,0.00
2023-01-26T01:35:14.404Z,0.00
2023-01-26T01:36:14.395Z,0.00
2023-01-26T01:37:14.366Z,0.00
2023-01-26T01:38:14.354Z,0.00
2023-01-26T01:39:14.351Z,0.00
2023-01-26T01:40:14.340Z,0.00
2023-01-26T01:41:14.311Z,0.00
2023-01-26T01:42:14.410Z,0.00
2023-01-26T01:43:14.293Z,0.00
2023-01-26T01:44:14.319Z,0.00
2023-01-26T01:45:14.274Z,0.00
2023-01-26T01:46:14.268Z,0.00
2023-01-26T01:47:14.230Z,0.00
2023-01-26T01:48:14.228Z,0.00
2023-01-26T01:49:14.207Z,0.00
2023-01-26T01:50:14.198Z,0.00
2023-01-26T01:51:14.179Z,0.00
2023-01-26T01:52:14.189Z,0.00
2023-01-26T01:53:14.180Z,0.00
2023-01-26T01:54:14.172Z,0.00
2023-01-26T01:55:14.155Z,0.00
2023-01-26T01:56:14.144Z,0.00
2023-01-26T01:57:14.112Z,0.00
2023-01-26T01:58:14.107Z,0.00
2023-01-26T01:59:14.147Z,0.00
2023-01-26T02:00:14.225Z,0.00
2023-01-26T02:01:14.099Z,0.00
2023-01-26T02:02:14.123Z,0.00
2023-01-26T02:03:14.068Z,0.00
2023-01-26T02:04:14.055Z,0.00
2023-01-26T02:05:14.047Z,0.00
2023-01-26T02:06:14.017Z,0.00
2023-01-26T02:07:13.998Z,0.00
2023-01-26T02:08:13.984Z,0.00
2023-01-26T02:09:13.995Z,0.00
2023-01-26T02:10:13.951Z,0.00
2023-01-26T02:11:13.954Z,0.00
2023-01-26T02:12:13.955Z,0.00
2023-01-26T02:13:13.971Z,0.00
2023-01-26T02:14:13.924Z,0.00
2023-01-26T02:15:13.910Z,0.00
2023-01-26T02:16:13.938Z,0.00
2023-01-26T02:17:13.893Z,0.00
2023-01-26T02:18:20.392Z,0.00
2023-01-26T02:19:13.859Z,0.00
2023-01-26T02:20:13.994Z,0.00
2023-01-26T02:21:13.856Z,0.00
2023-01-26T02:22:13.813Z,0.00
2023-01-26T02:23:13.853Z,0.00
2023-01-26T02:24:14.798Z,0.00
2023-01-26T02:25:13.798Z,0.00
2023-01-26T02:26:13.784Z,0.00
2023-01-26T02:27:13.779Z,0.00
2023-01-26T02:28:13.766Z,0.00
2023-01-26T02:29:13.742Z,0.00
2023-01-26T02:30:13.745Z,0.00
2023-01-26T02:31:13.881Z,0.00
2023-01-26T02:32:13.711Z,0.00
2023-01-26T02:33:13.686Z,0.00
2023-01-26T02:34:13.700Z,0.00
2023-01-26T02:35:13.673Z,0.00
2023-01-26T02:36:13.646Z,0.00
2023-01-26T02:37:13.641Z,0.00
2023-01-26T02:38:13.640Z,0.00
2023-01-26T02:39:13.642Z,0.00
2023-01-26T02:40:13.766Z,0.00
2023-01-26T02:41:13.591Z,0.00
2023-01-26T02:42:13.599Z,0.00
2023-01-26T02:43:13.601Z,0.00
2023-01-26T02:44:13.641Z,0.00
2023-01-26T02:45:13.586Z,0.00
2023-01-26T02:46:13.574Z,0.00
2023-01-26T02:47:13.527Z,0.00
2023-01-26T02:48:20.095Z,0.00
2023-01-26T02:49:13.506Z,0.00
2023-01-26T02:50:13.889Z,0.00
2023-01-26T02:51:13.487Z,0.00
2023-01-26T02:52:13.472Z,0.00
2023-01-26T02:53:13.467Z,0.00
2023-01-26T02:54:13.456Z,0.00
2023-01-26T02:55:13.459Z,0.00
2023-01-26T02:56:13.410Z,0.00
2023-01-26T02:57:13.421Z,0.00
2023-01-26T02:58:13.405Z,0.00
2023-01-26T02:59:13.398Z,0.00
2023-01-26T03:00:13.702Z,0.00
2023-01-26T03:01:13.423Z,0.00
2023-01-26T03:02:13.415Z,0.00
2023-01-26T03:03:13.365Z,0.00
2023-01-26T03:04:13.327Z,0.00
2023-01-26T03:05:13.326Z,0.00
2023-01-26T03:06:13.288Z,0.00
2023-01-26T03:07:13.308Z,0.00
2023-01-26T03:08:19.802Z,0.00
2023-01-26T03:09:13.268Z,0.00
2023-01-26T03:10:13.560Z,0.00
2023-01-26T03:11:13.262Z,0.00
2023-01-26T03:12:13.249Z,0.00
2023-01-26T03:13:13.237Z,0.00
2023-01-26T03:14:13.208Z,0.00
2023-01-26T03:15:13.300Z,0.00
2023-01-26T03:16:13.192Z,0.00
2023-01-26T03:17:13.192Z,0.00
2023-01-26T03:18:13.175Z,0.00
2023-01-26T03:19:13.141Z,0.00
2023-01-26T03:20:13.279Z,0.00
2023-01-26T03:21:13.142Z,0.00
2023-01-26T03:22:13.103Z,0.00
2023-01-26T03:23:13.090Z,0.00
2023-01-26T03:24:13.186Z,0.00
2023-01-26T03:25:13.087Z,0.00
2023-01-26T03:26:13.073Z,0.00
2023-01-26T03:27:13.066Z,0.00
2023-01-26T03:28:19.568Z,0.00
2023-01-26T03:29:13.045Z,0.00
2023-01-26T03:30:13.353Z,0.00
2023-01-26T03:31:13.021Z,0.00
2023-01-26T03:32:12.977Z,0.00
2023-01-26T03:33:12.976Z,0.00
2023-01-26T03:34:12.970Z,0.00
2023-01-26T03:35:12.961Z,0.00
2023-01-26T03:36:12.959Z,0.00
2023-01-26T03:37:12.940Z,0.00
2023-01-26T03:38:12.925Z,0.00
2023-01-26T03:39:12.907Z,0.00
2023-01-26T03:40:13.225Z,0.00
2023-01-26T03:41:12.900Z,0.00
2023-01-26T03:42:12.879Z,0.00
2023-01-26T03:43:12.909Z,0.00
2023-01-26T03:44:12.834Z,0.00
2023-01-26T03:45:12.868Z,0.00
2023-01-26T03:46:12.894Z,0.00
2023-01-26T03:47:12.823Z,0.00
2023-01-26T03:48:12.810Z,0.00
2023-01-26T03:49:12.817Z,0.00
2023-01-26T03:50:13.049Z,0.00
2023-01-26T03:51:12.777Z,0.00
2023-01-26T03:52:12.793Z,0.00
2023-01-26T03:53:12.769Z,0.00
2023-01-26T03:54:12.745Z,0.00
2023-01-26T03:55:12.744Z,0.00
2023-01-26T03:56:12.716Z,0.00
2023-01-26T03:57:12.730Z,0.00
2023-01-26T03:58:12.701Z,0.00
2023-01-26T03:59:12.692Z,0.00
2023-01-26T04:00:12.870Z,0.00
2023-01-26T04:01:12.709Z,0.00
2023-01-26T04:02:12.671Z,0.00
2023-01-26T04:03:12.643Z,0.00
2023-01-26T04:04:12.654Z,0.00
2023-01-26T04:05:12.629Z,0.00
2023-01-26T04:06:16.173Z,0.00
2023-01-26T04:07:12.601Z,0.00
2023-01-26T04:08:12.573Z,0.00
2023-01-26T04:09:12.559Z,0.00
2023-01-26T04:10:12.917Z,0.00
2023-01-26T04:11:12.535Z,0.00
2023-01-26T04:12:12.569Z,0.00
2023-01-26T04:13:12.516Z,0.00
2023-01-26T04:14:12.494Z,0.00
2023-01-26T04:15:12.503Z,0.00
2023-01-26T04:16:12.555Z,0.00
2023-01-26T04:17:12.543Z,0.00
2023-01-26T04:18:18.996Z,0.00
2023-01-26T04:19:12.472Z,0.00
2023-01-26T04:20:12.695Z,0.00
2023-01-26T04:21:12.452Z,0.00
2023-01-26T04:22:12.426Z,0.00
2023-01-26T04:23:12.410Z,0.00
2023-01-26T04:24:13.009Z,0.00
2023-01-26T04:25:12.364Z,0.00
2023-01-26T04:26:12.376Z,0.00
2023-01-26T04:27:12.340Z,0.00
2023-01-26T04:28:12.344Z,0.00
2023-01-26T04:29:12.309Z,0.00
2023-01-26T04:30:12.774Z,0.00
2023-01-26T04:31:12.352Z,0.00
2023-01-26T04:32:12.286Z,0.00
2023-01-26T04:33:12.292Z,0.00
2023-01-26T04:34:12.353Z,0.00
2023-01-26T04:35:12.276Z,0.00
2023-01-26T04:36:12.244Z,0.00
2023-01-26T04:37:12.242Z,0.00
2023-01-26T04:38:12.249Z,0.00
2023-01-26T04:39:12.209Z,0.00
2023-01-26T04:40:12.569Z,0.00
2023-01-26T04:41:12.193Z,0.00
2023-01-26T04:42:12.180Z,0.00
2023-01-26T04:43:12.183Z,0.00
2023-01-26T04:44:12.145Z,0.00
2023-01-26T04:45:12.151Z,0.00
2023-01-26T04:46:12.148Z,0.00
2023-01-26T04:47:12.113Z,0.00
2023-01-26T04:48:18.659Z,0.00
2023-01-26T04:49:12.118Z,0.00
2023-01-26T04:50:12.423Z,0.00
2023-01-26T04:51:12.087Z,0.00
2023-01-26T04:52:12.086Z,0.00
2023-01-26T04:53:12.023Z,0.00
2023-01-26T04:54:12.048Z,0.00
2023-01-26T04:55:12.006Z,0.00
2023-01-26T04:56:11.999Z,0.00
2023-01-26T04:57:12.022Z,0.00
2023-01-26T04:58:12.011Z,0.00
2023-01-26T04:59:11.959Z,0.00
2023-01-26T05:00:12.274Z,0.00
2023-01-26T05:01:11.983Z,0.00
2023-01-26T05:02:11.931Z,0.00
2023-01-26T05:03:11.925Z,0.00
2023-01-26T05:04:11.955Z,0.00
2023-01-26T05:05:11.881Z,0.00
2023-01-26T05:06:11.875Z,0.00
2023-01-26T05:07:11.885Z,0.00
2023-01-26T05:08:11.853Z,0.00
2023-01-26T05:09:11.859Z,0.00
2023-01-26T05:10:15.255Z,0.00
2023-01-26T05:11:11.809Z,0.00
2023-01-26T05:12:11.808Z,0.00
2023-01-26T05:13:11.789Z,0.00
2023-01-26T05:14:11.796Z,0.00
2023-01-26T05:15:11.777Z,0.00
2023-01-26T05:16:11.778Z,0.00
2023-01-26T05:17:11.753Z,0.00
2023-01-26T05:19:03.093Z,0.00
2023-01-26T05:20:03.978Z,0.00
2023-01-26T05:21:03.958Z,0.00
2023-01-26T05:22:03.972Z,0.00
2023-01-26T05:23:03.943Z,0.00
2023-01-26T05:24:03.989Z,0.00
2023-01-26T05:25:03.944Z,0.00
2023-01-26T05:26:03.936Z,0.00
2023-01-26T05:27:03.906Z,0.00
2023-01-26T05:28:03.882Z,0.00
2023-01-26T05:29:03.877Z,0.00
2023-01-26T05:30:03.860Z,0.00
2023-01-26T05:31:03.884Z,0.00
2023-01-26T05:32:03.940Z,0.00
2023-01-26T05:33:03.842Z,0.00
2023-01-26T05:34:03.833Z,0.00
2023-01-26T05:35:03.801Z,0.00
2023-01-26T05:36:03.796Z,0.00
2023-01-26T05:37:03.793Z,0.00
2023-01-26T05:39:03.221Z,0.00
2023-01-26T05:40:02.987Z,0.00
2023-01-26T05:41:02.990Z,0.00
2023-01-26T05:42:02.975Z,0.00
2023-01-26T05:43:02.940Z,0.00
2023-01-26T05:44:02.939Z,0.00
2023-01-26T05:45:02.912Z,0.00
2023-01-26T05:46:03.010Z,0.00
2023-01-26T05:47:02.914Z,0.00
2023-01-26T05:48:02.888Z,0.00
2023-01-26T05:49:02.857Z,0.00
2023-01-26T05:50:02.938Z,0.00
2023-01-26T05:51:04.021Z,0.00
2023-01-26T05:52:02.858Z,0.00
2023-01-26T05:53:03.488Z,0.00
2023-01-26T05:54:02.826Z,0.00
2023-01-26T05:55:02.829Z,0.00
2023-01-26T05:56:02.797Z,0.00
2023-01-26T05:57:02.978Z,0.00
2023-01-26T05:58:02.811Z,0.00
2023-01-26T05:59:09.258Z,0.00
2023-01-26T06:00:02.782Z,0.00
2023-01-26T06:01:02.738Z,0.00
2023-01-26T06:02:02.749Z,0.00
2023-01-26T06:03:02.728Z,0.00
2023-01-26T06:04:02.792Z,0.00
2023-01-26T06:05:02.683Z,0.00
2023-01-26T06:06:02.934Z,0.00
2023-01-26T06:07:02.697Z,0.00
2023-01-26T06:08:02.642Z,0.00
2023-01-26T06:09:02.644Z,0.00
2023-01-26T06:10:02.863Z,0.00
2023-01-26T06:11:02.625Z,0.00
2023-01-26T06:12:02.644Z,0.00
2023-01-26T06:13:02.642Z,0.00
2023-01-26T06:14:02.629Z,0.00
2023-01-26T06:15:02.583Z,0.00
2023-01-26T06:16:02.593Z,0.00
2023-01-26T06:17:02.658Z,0.00
2023-01-26T06:18:02.543Z,0.00
2023-01-26T06:19:02.525Z,0.00
2023-01-26T06:20:02.536Z,0.00
2023-01-26T06:21:02.568Z,0.00
2023-01-26T06:22:02.512Z,0.00
2023-01-26T06:23:02.643Z,0.00
2023-01-26T06:24:02.484Z,0.00
2023-01-26T06:25:02.481Z,0.00
2023-01-26T06:26:02.457Z,0.00
2023-01-26T06:27:02.442Z,0.00
2023-01-26T06:28:02.410Z,0.00
2023-01-26T06:29:02.419Z,0.00
2023-01-26T06:30:02.428Z,0.00
2023-01-26T06:31:02.563Z,0.00
2023-01-26T06:32:02.388Z,0.00
2023-01-26T06:33:02.366Z,0.00
2023-01-26T06:34:02.344Z,0.00
2023-01-26T06:35:02.376Z,0.00
2023-01-26T06:36:02.340Z,0.00
2023-01-26T06:37:02.300Z,0.00
2023-01-26T06:38:02.286Z,0.00
2023-01-26T06:39:02.293Z,0.00
2023-01-26T06:40:02.308Z,0.00
2023-01-26T06:41:02.255Z,0.00
2023-01-26T06:42:02.260Z,0.00
2023-01-26T06:43:02.550Z,0.00
2023-01-26T06:44:02.256Z,0.00
2023-01-26T06:45:02.230Z,0.00
2023-01-26T06:46:02.212Z,0.00
2023-01-26T06:47:02.225Z,0.00
2023-01-26T06:48:02.221Z,0.00
2023-01-26T06:49:08.696Z,0.00
2023-01-26T06:50:02.365Z,0.00
2023-01-26T06:51:02.172Z,0.00
2023-01-26T06:52:02.240Z,0.00
2023-01-26T06:53:02.137Z,0.00
2023-01-26T06:54:02.097Z,0.00
2023-01-26T06:55:02.209Z,0.00
2023-01-26T06:56:02.102Z,0.00
2023-01-26T06:57:02.098Z,0.00
2023-01-26T06:58:02.077Z,0.00
2023-01-26T06:59:02.047Z,0.00
2023-01-26T07:00:02.075Z,0.00
2023-01-26T07:01:03.075Z,0.00
2023-01-26T07:02:02.029Z,0.00
2023-01-26T07:03:02.033Z,0.00
2023-01-26T07:04:01.991Z,0.00
2023-01-26T07:05:02.569Z,0.00
2023-01-26T07:06:01.970Z,0.00
2023-01-26T07:07:01.983Z,0.00
2023-01-26T07:08:01.961Z,0.00
2023-01-26T07:09:02.171Z,0.00
2023-01-26T07:10:01.958Z,0.00
2023-01-26T07:11:01.904Z,0.00
2023-01-26T07:12:01.917Z,0.00
2023-01-26T07:13:01.884Z,0.00
2023-01-26T07:14:02.124Z,0.00
2023-01-26T07:15:01.892Z,0.00
2023-01-26T07:16:01.973Z,0.00
2023-01-26T07:17:02.224Z,0.00
2023-01-26T07:18:01.833Z,0.00
2023-01-26T07:19:01.826Z,0.00
2023-01-26T07:20:01.861Z,0.00
2023-01-26T07:21:01.804Z,0.00
2023-01-26T07:22:02.012Z,0.00
2023-01-26T07:23:02.265Z,0.00
2023-01-26T07:24:01.797Z,0.00
2023-01-26T07:25:01.774Z,0.00
2023-01-26T07:26:01.766Z,0.00
2023-01-26T07:27:01.933Z,0.00
2023-01-26T07:28:01.743Z,0.00
2023-01-26T07:29:02.018Z,0.00
2023-01-26T07:30:01.702Z,0.00
2023-01-26T07:31:01.707Z,5.62
2023-01-26T07:32:01.754Z,5.62
2023-01-26T07:33:01.655Z,5.62
2023-01-26T07:34:01.647Z,5.62
2023-01-26T07:35:01.649Z,5.62
2023-01-26T07:36:01.618Z,5.62
2023-01-26T07:37:02.719Z,5.62
2023-01-26T07:38:01.611Z,5.62
2023-01-26T07:39:02.531Z,5.62
2023-01-26T07:40:01.587Z,5.62
2023-01-26T07:41:01.550Z,5.62
2023-01-26T07:42:03.050Z,5.62
2023-01-26T07:43:01.585Z,5.62
2023-01-26T07:44:01.594Z,11.25
2023-01-26T07:45:01.546Z,11.25
2023-01-26T07:46:01.551Z,11.25
2023-01-26T07:47:01.522Z,11.25
2023-01-26T07:48:01.522Z,11.25
2023-01-26T07:49:01.487Z,16.88
2023-01-26T07:50:01.464Z,16.88
2023-01-26T07:51:01.473Z,16.88
2023-01-26T07:52:03.235Z,22.50
2023-01-26T07:53:01.431Z,22.50
2023-01-26T07:54:01.487Z,22.50
2023-01-26T07:55:01.388Z,22.50
2023-01-26T07:56:01.397Z,22.50
2023-01-26T07:57:01.379Z,28.12
2023-01-26T07:58:02.557Z,28.12
2023-01-26T07:59:03.712Z,28.12
2023-01-26T08:00:01.378Z,28.12
2023-01-26T08:01:01.349Z,28.12
2023-01-26T08:02:01.425Z,28.12
2023-01-26T08:03:01.399Z,28.12
2023-01-26T08:04:01.299Z,33.75
2023-01-26T08:05:01.296Z,33.75
2023-01-26T08:06:01.284Z,33.75
2023-01-26T08:07:01.268Z,33.75
2023-01-26T08:08:02.066Z,33.75
2023-01-26T08:09:01.582Z,33.75
2023-01-26T08:10:04.459Z,39.38
2023-01-26T08:11:08.328Z,33.75
2023-01-26T08:12:02.052Z,33.75
2023-01-26T08:13:01.185Z,33.75
2023-01-26T08:14:01.395Z,33.75
2023-01-26T08:15:01.175Z,39.38
2023-01-26T08:16:01.151Z,39.38
2023-01-26T08:17:01.143Z,39.38
2023-01-26T08:18:02.043Z,39.38
2023-01-26T08:19:01.152Z,39.38
2023-01-26T08:20:01.096Z,39.38
2023-01-26T08:21:01.117Z,39.38
2023-01-26T08:22:02.528Z,45.00
2023-01-26T08:23:02.035Z,39.38
2023-01-26T08:24:02.206Z,39.38
2023-01-26T08:25:01.124Z,45.00
2023-01-26T08:26:01.054Z,45.00
2023-01-26T08:27:01.044Z,45.00
2023-01-26T08:28:01.015Z,45.00
2023-01-26T08:29:00.998Z,45.00
2023-01-26T08:30:01.769Z,45.00
2023-01-26T08:31:01.059Z,45.00
2023-01-26T08:32:01.043Z,45.00
2023-01-26T08:33:00.955Z,45.00
2023-01-26T08:34:00.932Z,45.00
2023-01-26T08:35:00.942Z,45.00
2023-01-26T08:36:00.917Z,45.00
2023-01-26T08:37:00.937Z,45.00
2023-01-26T08:38:00.897Z,45.00
2023-01-26T08:39:08.437Z,45.00
2023-01-26T08:40:00.948Z,45.00
2023-01-26T08:41:00.885Z,45.00
2023-01-26T08:42:00.864Z,45.00
2023-01-26T08:43:00.861Z,45.00
2023-01-26T08:44:00.850Z,45.00
2023-01-26T08:45:00.901Z,50.62
2023-01-26T08:46:00.885Z,61.88
2023-01-26T08:47:00.830Z,73.12
2023-01-26T08:48:00.781Z,67.50
2023-01-26T08:49:00.793Z,50.62
2023-01-26T08:50:00.808Z,50.62
2023-01-26T08:51:00.759Z,50.62
2023-01-26T08:52:00.736Z,50.62
2023-01-26T08:53:00.728Z,50.62
2023-01-26T08:54:00.730Z,50.62
2023-01-26T08:55:00.753Z,56.25
2023-01-26T08:56:00.778Z,56.25
2023-01-26T08:57:00.716Z,56.25
2023-01-26T08:58:00.749Z,50.62
2023-01-26T08:59:00.694Z,50.62
2023-01-26T09:00:00.659Z,50.62
2023-01-26T09:01:00.672Z,50.62
2023-01-26T09:02:00.781Z,50.62
2023-01-26T09:03:00.830Z,50.62
2023-01-26T09:04:00.596Z,56.25
2023-01-26T09:05:00.618Z,56.25
2023-01-26T09:06:00.638Z,61.88
2023-01-26T09:07:00.600Z,56.25
2023-01-26T09:08:00.555Z,56.25
2023-01-26T09:09:07.178Z,50.62
2023-01-26T09:10:00.554Z,50.62
2023-01-26T09:11:00.582Z,45.00
2023-01-26T09:12:00.515Z,45.00
2023-01-26T09:13:00.766Z,45.00
2023-01-26T09:14:00.491Z,39.38
2023-01-26T09:15:00.497Z,39.38
2023-01-26T09:16:00.458Z,39.38
2023-01-26T09:17:00.475Z,39.38
2023-01-26T09:18:01.101Z,39.38
2023-01-26T09:19:00.454Z,33.75
2023-01-26T09:20:00.671Z,28.12
2023-01-26T09:21:00.427Z,28.12
2023-01-26T09:22:00.400Z,28.12
2023-01-26T09:23:00.403Z,28.12
2023-01-26T09:24:00.420Z,28.12
2023-01-26T09:25:00.388Z,28.12
2023-01-26T09:26:00.374Z,28.12
2023-01-26T09:27:00.636Z,33.75
2023-01-26T09:28:00.342Z,33.75
2023-01-26T09:29:00.337Z,33.75
2023-01-26T09:30:00.579Z,39.38
2023-01-26T09:31:00.372Z,50.62
2023-01-26T09:32:00.437Z,67.50
2023-01-26T09:33:00.296Z,73.12
2023-01-26T09:34:00.269Z,73.12
2023-01-26T09:35:00.301Z,61.88
2023-01-26T09:36:00.268Z,56.25
2023-01-26T09:37:00.262Z,56.25
2023-01-26T09:38:00.224Z,56.25
2023-01-26T09:39:00.235Z,56.25
2023-01-26T09:40:00.231Z,56.25
2023-01-26T09:41:00.213Z,56.25
2023-01-26T09:42:00.186Z,61.88
2023-01-26T09:43:00.212Z,67.50
2023-01-26T09:44:00.159Z,73.12
2023-01-26T09:45:00.192Z,78.75
2023-01-26T09:46:00.204Z,78.75
2023-01-26T09:47:00.139Z,84.38
2023-01-26T09:48:00.148Z,95.62
2023-01-26T09:49:00.222Z,101.25
2023-01-26T09:50:01.052Z,90.00
2023-01-26T09:51:00.090Z,84.38
2023-01-26T09:52:00.880Z,84.38
2023-01-26T09:53:00.067Z,84.38
2023-01-26T09:54:00.047Z,84.38
2023-01-26T09:55:00.070Z,78.75
2023-01-26T09:56:00.047Z,73.12
2023-01-26T09:57:00.008Z,73.12
2023-01-26T09:58:00.122Z,67.50
2023-01-26T09:59:00.002Z,73.12
2023-01-26T10:00:00.038Z,78.75
2023-01-26T10:00:59.971Z,78.75
2023-01-26T10:01:59.976Z,84.38
2023-01-26T10:03:00.073Z,78.75
2023-01-26T10:04:00.604Z,78.75
2023-01-26T10:04:59.949Z,78.75
2023-01-26T10:05:59.934Z,78.75
2023-01-26T10:07:02.762Z,78.75
2023-01-26T10:07:59.921Z,84.38
2023-01-26T10:08:59.895Z,84.38
2023-01-26T10:09:59.876Z,84.38
2023-01-26T10:10:59.863Z,84.38
2023-01-26T10:11:59.887Z,84.38
2023-01-26T10:12:59.916Z,84.38
2023-01-26T10:13:59.841Z,90.00
2023-01-26T10:14:59.855Z,90.00
2023-01-26T10:15:59.871Z,84.38
2023-01-26T10:16:59.815Z,84.38
2023-01-26T10:17:59.796Z,84.38
2023-01-26T10:19:06.369Z,78.75
2023-01-26T10:19:59.792Z,73.12
2023-01-26T10:20:59.823Z,73.12
2023-01-26T10:22:00.407Z,67.50
2023-01-26T10:23:00.666Z,73.12
2023-01-26T10:23:59.738Z,73.12
2023-01-26T10:24:59.712Z,78.75
2023-01-26T10:26:01.223Z,90.00
2023-01-26T10:26:59.709Z,84.38
2023-01-26T10:27:59.671Z,90.00
2023-01-26T10:28:59.736Z,95.62
2023-01-26T10:29:59.678Z,101.25
2023-01-26T10:30:59.730Z,112.50
2023-01-26T10:31:59.652Z,123.75
2023-01-26T10:32:59.664Z,129.38
2023-01-26T10:33:59.635Z,135.00
2023-01-26T10:34:59.611Z,129.38
2023-01-26T10:36:00.158Z,123.75
2023-01-26T10:36:59.634Z,129.38
2023-01-26T10:37:59.569Z,129.38
2023-01-26T10:38:59.582Z,118.12
2023-01-26T10:39:59.584Z,101.25
2023-01-26T10:41:00.256Z,95.62
2023-01-26T10:41:59.516Z,90.00
2023-01-26T10:43:00.065Z,78.75
2023-01-26T10:43:59.487Z,67.50
2023-01-26T10:45:00.395Z,61.88
2023-01-26T10:45:59.481Z,61.88
2023-01-26T10:46:59.703Z,61.88
2023-01-26T10:47:59.468Z,67.50
2023-01-26T10:48:59.597Z,73.12
2023-01-26T10:49:59.465Z,73.12
2023-01-26T10:51:01.196Z,67.50
2023-01-26T10:51:59.425Z,67.50
2023-01-26T10:52:59.404Z,67.50
2023-01-26T10:53:59.653Z,67.50
2023-01-26T10:54:59.615Z,67.50
2023-01-26T10:55:59.432Z,73.12
2023-01-26T10:56:59.375Z,78.75
2023-01-26T10:57:59.391Z,78.75
2023-01-26T10:58:59.353Z,78.75
2023-01-26T10:59:59.398Z,73.12
2023-01-26T11:00:59.304Z,73.12
2023-01-26T11:01:59.397Z,78.75
2023-01-26T11:02:59.398Z,84.38
2023-01-26T11:03:59.281Z,90.00
2023-01-26T11:04:59.294Z,90.00
2023-01-26T11:05:59.267Z,95.62
2023-01-26T11:06:59.262Z,101.25
2023-01-26T11:07:59.243Z,101.25
2023-01-26T11:08:59.231Z,101.25
2023-01-26T11:09:59.235Z,101.25
2023-01-26T11:10:59.197Z,101.25
2023-01-26T11:11:59.219Z,95.62
2023-01-26T11:12:59.181Z,95.62
2023-01-26T11:13:59.194Z,90.00
2023-01-26T11:14:59.196Z,90.00
2023-01-26T11:15:59.270Z,90.00
2023-01-26T11:16:59.137Z,95.62
2023-01-26T11:17:59.138Z,95.62
2023-01-26T11:19:06.696Z,101.25
2023-01-26T11:19:59.143Z,101.25
2023-01-26T11:21:01.297Z,95.62
2023-01-26T11:21:59.098Z,95.62
2023-01-26T11:22:59.089Z,101.25
2023-01-26T11:23:59.159Z,101.25
2023-01-26T11:24:59.087Z,101.25
2023-01-26T11:25:59.050Z,106.88
2023-01-26T11:27:00.205Z,112.50
2023-01-26T11:28:00.000Z,112.50
2023-01-26T11:28:59.738Z,112.50
2023-01-26T11:29:59.027Z,118.12
2023-01-26T11:30:59.397Z,118.12
2023-01-26T11:31:59.039Z,118.12
2023-01-26T11:32:58.994Z,112.50
2023-01-26T11:33:58.979Z,106.88
2023-01-26T11:34:59.153Z,106.88
2023-01-26T11:35:58.961Z,106.88
2023-01-26T11:36:58.921Z,101.25
2023-01-26T11:38:01.858Z,95.62
2023-01-26T11:38:58.920Z,90.00
2023-01-26T11:39:58.919Z,90.00
2023-01-26T11:40:58.922Z,90.00
2023-01-26T11:41:58.872Z,90.00
2023-01-26T11:42:58.872Z,90.00
2023-01-26T11:43:58.845Z,90.00
2023-01-26T11:44:58.860Z,90.00
2023-01-26T11:45:58.858Z,90.00
2023-01-26T11:46:58.812Z,90.00
2023-01-26T11:47:58.848Z,90.00
2023-01-26T11:49:05.309Z,90.00
2023-01-26T11:49:58.792Z,90.00
2023-01-26T11:50:58.812Z,95.62
2023-01-26T11:52:02.438Z,95.62
2023-01-26T11:52:58.790Z,90.00
2023-01-26T11:53:59.775Z,90.00
2023-01-26T11:54:58.720Z,90.00
2023-01-26T11:55:58.943Z,90.00
2023-01-26T11:56:58.708Z,90.00
2023-01-26T11:57:58.725Z,95.62
2023-01-26T11:58:58.711Z,95.62
2023-01-26T11:59:58.664Z,101.25
2023-01-26T12:00:59.247Z,101.25
2023-01-26T12:01:59.844Z,101.25
2023-01-26T12:02:58.758Z,95.62
2023-01-26T12:03:58.625Z,101.25
2023-01-26T12:04:58.658Z,106.88
2023-01-26T12:05:58.602Z,106.88
2023-01-26T12:06:59.980Z,95.62
2023-01-26T12:07:58.599Z,90.00
2023-01-26T12:08:58.608Z,90.00
2023-01-26T12:09:58.562Z,84.38
2023-01-26T12:10:58.562Z,84.38
2023-01-26T12:11:58.558Z,78.75
2023-01-26T12:12:58.556Z,78.75
2023-01-26T12:13:58.547Z,84.38
2023-01-26T12:14:58.515Z,78.75
2023-01-26T12:15:58.523Z,78.75
2023-01-26T12:17:15.546Z,78.75
2023-01-26T12:17:58.509Z,78.75
2023-01-26T12:19:10.104Z,78.75
2023-01-26T12:19:58.692Z,84.38
2023-01-26T12:20:58.471Z,90.00
2023-01-26T12:21:58.562Z,84.38
2023-01-26T12:22:58.437Z,84.38
2023-01-26T12:23:58.532Z,78.75
2023-01-26T12:25:18.117Z,78.75
2023-01-26T12:25:58.430Z,78.75
2023-01-26T12:26:58.387Z,78.75
2023-01-26T12:27:58.370Z,78.75
2023-01-26T12:29:04.877Z,84.38
2023-01-26T12:29:58.377Z,84.38
2023-01-26T12:30:58.820Z,84.38
2023-01-26T12:31:59.295Z,90.00
2023-01-26T12:32:58.383Z,90.00
2023-01-26T12:33:58.335Z,90.00
2023-01-26T12:34:58.329Z,90.00
2023-01-26T12:35:58.313Z,90.00
2023-01-26T12:36:58.288Z,90.00
2023-01-26T12:38:12.204Z,84.38
2023-01-26T12:38:58.261Z,84.38
2023-01-26T12:39:58.250Z,78.75
2023-01-26T12:40:58.257Z,73.12
2023-01-26T12:41:58.237Z,73.12
2023-01-26T12:42:58.239Z,73.12
2023-01-26T12:43:58.875Z,73.12
2023-01-26T12:44:58.775Z,73.12
2023-01-26T12:46:00.508Z,78.75
2023-01-26T12:46:58.202Z,73.12
2023-01-26T12:47:58.179Z,67.50
2023-01-26T12:48:58.156Z,67.50
2023-01-26T12:49:58.335Z,67.50
2023-01-26T12:50:58.123Z,67.50
2023-01-26T12:51:58.139Z,67.50
2023-01-26T12:52:58.120Z,67.50
2023-01-26T12:54:04.797Z,67.50
2023-01-26T12:54:58.285Z,61.88
2023-01-26T12:55:58.086Z,61.88
2023-01-26T12:56:58.049Z,67.50
2023-01-26T12:57:58.099Z,73.12
2023-01-26T12:58:58.060Z,78.75
2023-01-26T12:59:58.931Z,73.12
2023-01-26T13:00:58.236Z,73.12
2023-01-26T13:01:58.024Z,73.12
2023-01-26T13:02:58.032Z,73.12
2023-01-26T13:03:58.063Z,73.12
2023-01-26T13:04:58.790Z,67.50
2023-01-26T13:05:58.011Z,61.88
2023-01-26T13:06:57.973Z,61.88
2023-01-26T13:07:57.954Z,61.88